Time;durP1;ratioP1;P1;durP2;ratioP2;P2;SDS_P1;SDS_P2;PMS_P1;PMS_P2;Temp;Humidity;BMP_temperature;BMP_pressure;BME280_temperature;BME280_humidity;BME280_pressure;Samples;Min_cycle;Max_cycle;Signal;HPM_P1;HPM_P2
2022/02/23 00:08:48;;;;;;;;;2.50;2.50;;;;;;;;2;279079304;279079304;-83
2022/02/23 00:17:03;;;;;;;;;3.00;3.00;;;;;;;;2;234066671;234066671;-83
2022/02/23 00:26:04;;;;;;;;;3.00;3.00;;;;;;;;2;279079732;279079732;-83
2022/02/23 00:34:19;;;;;;;;;2.50;2.50;;;;;;;;2;234069422;234069422;-83
2022/02/23 00:43:20;;;;;;;;;1.50;1.50;;;;;;;;2;279081303;279081303;-83
2022/02/23 00:51:35;;;;;;;;;3.50;3.50;;;;;;;;2;234067839;234067839;-83
2022/02/23 01:00:36;;;;;;;;;4.00;4.00;;;;;;;;2;279078149;279078149;-83
2022/02/23 01:08:51;;;;;;;;;2.00;2.00;;;;;;;;2;234067283;234067283;-83
2022/02/23 01:17:52;;;;;;;;;8.00;4.00;;;;;;;;2;279078946;279078946;-83
2022/02/23 01:26:07;;;;;;;;;2.50;2.50;;;;;;;;2;234067084;234067084;-83
2022/02/23 01:35:08;;;;;;;;;2.50;2.50;;;;;;;;2;279081781;279081781;-83
2022/02/23 01:43:23;;;;;;;;;14.00;1.00;;;;;;;;2;234068043;234068043;-83
2022/02/23 01:52:25;;;;;;;;;1.00;1.00;;;;;;;;2;279078426;279078426;-81
2022/02/23 02:00:40;;;;;;;;;2.00;0.00;;;;;;;;2;234065999;234065999;-81
2022/02/23 02:09:41;;;;;;;;;2.50;2.50;;;;;;;;2;279081543;279081543;-82
2022/02/23 02:17:56;;;;;;;;;13.00;4.50;;;;;;;;2;234067296;234067296;-81
2022/02/23 02:26:57;;;;;;;;;12.50;0.50;;;;;;;;2;279082919;279082919;-81
2022/02/23 02:35:15;;;;;;;;;4.50;4.50;;;;;;;;2;234067720;234067720;-82
2022/02/23 02:44:17;;;;;;;;;3.00;3.00;;;;;;;;2;279078970;279078970;-82
2022/02/23 02:52:32;;;;;;;;;11.00;3.00;;;;;;;;2;234069150;234069150;-82
2022/02/23 03:01:34;;;;;;;;;2.50;2.50;;;;;;;;2;279080360;279080360;-83
2022/02/23 03:09:49;;;;;;;;;2.00;2.00;;;;;;;;2;234068736;234068736;-83
2022/02/23 03:18:49;;;;;;;;;5.50;1.50;;;;;;;;2;279079831;279079831;-83
2022/02/23 03:27:05;;;;;;;;;5.00;1.00;;;;;;;;2;234068991;234068991;-83
2022/02/23 03:36:06;;;;;;;;;0.50;0.50;;;;;;;;2;279078602;279078602;-83
2022/02/23 03:44:21;;;;;;;;;3.00;3.00;;;;;;;;2;234070026;234070026;-83
2022/02/23 03:53:22;;;;;;;;;0.50;0.50;;;;;;;;2;279050759;279050759;-83
2022/02/23 04:01:38;;;;;;;;;0.00;0.00;;;;;;;;2;234068826;234068826;-82
2022/02/23 04:10:39;;;;;;;;;2.50;2.50;;;;;;;;2;279077724;279077724;-82
2022/02/23 04:18:54;;;;;;;;;1.50;1.50;;;;;;;;2;234068798;234068798;-82
2022/02/23 04:27:55;;;;;;;;;2.50;2.50;;;;;;;;2;279082768;279082768;-83
2022/02/23 04:36:11;;;;;;;;;6.00;2.00;;;;;;;;2;234067586;234067586;-83
2022/02/23 04:45:11;;;;;;;;;2.50;2.50;;;;;;;;2;279077883;279077883;-83
2022/02/23 04:53:26;;;;;;;;;2.50;2.50;;;;;;;;2;234066552;234066552;-83
2022/02/23 05:02:27;;;;;;;;;1.00;1.00;;;;;;;;2;279079402;279079402;-83
2022/02/23 05:10:43;;;;;;;;;3.50;3.50;;;;;;;;2;234070261;234070261;-83
2022/02/23 05:19:44;;;;;;;;;18.00;8.00;;;;;;;;2;279076746;279076746;-83
2022/02/23 05:27:59;;;;;;;;;5.00;3.00;;;;;;;;2;234068006;234068006;-83
2022/02/23 05:36:59;;;;;;;;;2.00;2.00;;;;;;;;2;279080817;279080817;-83
2022/02/23 05:45:15;;;;;;;;;2.00;2.00;;;;;;;;2;234066505;234066505;-82
2022/02/23 05:54:16;;;;;;;;;4.00;4.00;;;;;;;;2;279082088;279082088;-83
2022/02/23 06:02:31;;;;;;;;;3.00;3.00;;;;;;;;2;234067532;234067532;-82
2022/02/23 06:11:31;;;;;;;;;4.00;4.00;;;;;;;;2;279082254;279082254;-83
2022/02/23 06:19:47;;;;;;;;;13.50;1.50;;;;;;;;2;234068560;234068560;-83
2022/02/23 06:28:47;;;;;;;;;3.50;3.50;;;;;;;;2;279080816;279080816;-83
2022/02/23 06:37:03;;;;;;;;;2.50;2.50;;;;;;;;2;234067307;234067307;-83
2022/02/23 06:46:04;;;;;;;;;1.50;1.50;;;;;;;;2;279078651;279078651;-83
2022/02/23 06:54:19;;;;;;;;;3.50;3.50;;;;;;;;2;234066716;234066716;-82
2022/02/23 07:03:20;;;;;;;;;15.00;3.50;;;;;;;;2;279078887;279078887;-82
2022/02/23 07:11:36;;;;;;;;;7.00;3.00;;;;;;;;2;234069556;234069556;-81
2022/02/23 07:20:37;;;;;;;;;5.00;5.00;;;;;;;;2;279079781;279079781;-83
2022/02/23 07:28:52;;;;;;;;;2.50;1.00;;;;;;;;2;234068034;234068034;-82
2022/02/23 07:37:54;;;;;;;;;6.50;3.50;;;;;;;;2;279079166;279079166;-83
2022/02/23 07:46:11;;;;;;;;;4.50;4.50;;;;;;;;2;234067562;234067562;-83
2022/02/23 07:55:11;;;;;;;;;7.00;5.50;;;;;;;;2;279079953;279079953;-83
2022/02/23 08:03:27;;;;;;;;;13.50;7.00;;;;;;;;2;234068019;234068019;-83
2022/02/23 08:12:27;;;;;;;;;4.00;4.00;;;;;;;;2;279081684;279081684;-83
2022/02/23 08:20:41;;;;;;;;;6.50;6.50;;;;;;;;2;233789532;233789532;-83
2022/02/23 08:29:42;;;;;;;;;6.00;6.00;;;;;;;;2;279083070;279083070;-83
2022/02/23 08:37:58;;;;;;;;;18.00;13.50;;;;;;;;2;234068128;234068128;-83
2022/02/23 08:46:59;;;;;;;;;11.50;11.50;;;;;;;;2;279079760;279079760;-82
2022/02/23 08:55:15;;;;;;;;;14.50;10.00;;;;;;;;2;234068500;234068500;-83
2022/02/23 09:04:15;;;;;;;;;13.00;13.00;;;;;;;;2;279078856;279078856;-83
2022/02/23 09:12:30;;;;;;;;;15.50;12.00;;;;;;;;2;234069933;234069933;-83
2022/02/23 09:21:31;;;;;;;;;21.50;9.50;;;;;;;;2;279080854;279080854;-83
2022/02/23 09:29:46;;;;;;;;;30.00;12.00;;;;;;;;2;233922777;233922777;-83
2022/02/23 09:38:47;;;;;;;;;16.00;16.00;;;;;;;;2;279079335;279079335;-83
2022/02/23 09:47:03;;;;;;;;;20.50;16.50;;;;;;;;2;234067360;234067360;-83
2022/02/23 09:56:03;;;;;;;;;8.00;8.00;;;;;;;;2;279079719;279079719;-83
2022/02/23 10:04:22;;;;;;;;;15.00;9.50;;;;;;;;2;234067683;234067683;-84
2022/02/23 10:13:23;;;;;;;;;6.50;6.50;;;;;;;;2;279083330;279083330;-83
2022/02/23 10:21:45;;;;;;;;;12.50;8.00;;;;;;;;2;234065496;234065496;-83
2022/02/23 10:30:51;;;;;;;;;17.50;13.50;;;;;;;;2;279079408;279079408;-83
2022/02/23 10:39:10;;;;;;;;;1.00;1.00;;;;;;;;2;234072521;234072521;-83
2022/02/23 10:48:11;;;;;;;;;2.50;2.50;;;;;;;;2;279082174;279082174;-83
2022/02/23 10:56:30;;;;;;;;;5.50;5.50;;;;;;;;2;234069303;234069303;-83
2022/02/23 11:05:33;;;;;;;;;7.50;7.50;;;;;;;;2;279081779;279081779;-84
2022/02/23 11:13:49;;;;;;;;;1.00;1.00;;;;;;;;2;234066332;234066332;-83
2022/02/23 11:22:56;;;;;;;;;1.50;1.50;;;;;;;;2;279082074;279082074;-83
2022/02/23 11:31:13;;;;;;;;;1.00;1.00;;;;;;;;2;234067004;234067004;-83
2022/02/23 11:40:21;;;;;;;;;1.50;1.50;;;;;;;;2;278625248;278625248;-84
2022/02/23 11:48:50;;;;;;;;;2.50;2.50;;;;;;;;2;233672124;233672124;-83
2022/02/23 11:57:42;;;;;;;;;0.50;0.50;;;;;;;;2;261791788;261791788;-84
2022/02/23 12:06:06;;;;;;;;;1.50;1.50;;;;;;;;2;234070382;234070382;-84
2022/02/23 12:15:08;;;;;;;;;9.50;5.50;;;;;;;;2;279079207;279079207;-84
2022/02/23 12:23:24;;;;;;;;;1.50;1.50;;;;;;;;2;234070716;234070716;-84
2022/02/23 12:32:25;;;;;;;;;11.00;2.00;;;;;;;;2;279080769;279080769;-83
2022/02/23 12:40:42;;;;;;;;;5.00;2.50;;;;;;;;2;234070538;234070538;-83
2022/02/23 12:49:42;;;;;;;;;1.50;1.50;;;;;;;;2;279080715;279080715;-83
2022/02/23 12:57:57;;;;;;;;;1.00;1.00;;;;;;;;2;234067271;234067271;-85
2022/02/23 13:07:01;;;;;;;;;1.50;1.50;;;;;;;;2;279076688;279076688;-84
2022/02/23 13:15:16;;;;;;;;;1.50;1.50;;;;;;;;2;234069090;234069090;-84
2022/02/23 13:24:05;;;;;;;;;6.50;2.00;;;;;;;;2;270523869;270523869;-84
2022/02/23 13:35:06;;;;;;;;;5.00;1.00;;;;;;;;3;125774501;252605465;-84
2022/02/23 13:43:12;;;;;;;;;;;;;;;;;;2;250993817;250993817;-84
2022/02/23 13:49:11;;;;;;;;;0.00;0.00;;;;;;;;2;192345085;192345085;-84
2022/02/23 13:57:27;;;;;;;;;1.50;1.50;;;;;;;;2;261077524;261077524;-84
2022/02/23 14:06:34;;;;;;;;;3.50;3.50;;;;;;;;2;261075416;261075416;-84
2022/02/23 14:14:50;;;;;;;;;0.50;0.50;;;;;;;;2;261074891;261074891;-84
2022/02/23 14:23:57;;;;;;;;;0.00;0.00;;;;;;;;2;261076671;261076671;-83
2022/02/23 14:32:16;;;;;;;;;0.50;0.50;;;;;;;;2;261074918;261074918;-83
2022/02/23 14:41:16;;;;;;;;;2.50;2.50;;;;;;;;2;261075341;261075341;-83
2022/02/23 14:49:32;;;;;;;;;2.50;2.50;;;;;;;;2;261077274;261077274;-83
2022/02/23 14:58:32;;;;;;;;;0.00;0.00;;;;;;;;2;261076781;261076781;-82
2022/02/23 15:00:57;;;;;;;;;2.00;1.25;;;;;;;;4182412;27;26864292;-82
2022/02/23 15:10:09;;;;;;;;;;;;;;;;;;407363;27;279078322;-83
2022/02/23 15:18:25;;;;;;;;;0.00;0.00;;;;;;;;2;234068960;234068960;-82
2022/02/23 15:27:25;;;;;;;;;0.50;0.50;;;;;;;;2;279080559;279080559;-83
2022/02/23 15:35:42;;;;;;;;;0.00;0.00;;;;;;;;2;234068179;234068179;-83
2022/02/23 15:44:43;;;;;;;;;1.00;1.00;;;;;;;;2;279081457;279081457;-82
2022/02/23 15:52:58;;;;;;;;;0.00;0.00;;;;;;;;2;234068636;234068636;-82
2022/02/23 16:01:58;;;;;;;;;2.00;2.00;;;;;;;;2;279079770;279079770;-82
2022/02/23 16:10:14;;;;;;;;;2.00;2.00;;;;;;;;2;234066070;234066070;-82
2022/02/23 16:19:14;;;;;;;;;2.50;2.50;;;;;;;;2;279078131;279078131;-82
2022/02/23 16:27:30;;;;;;;;;2.00;2.00;;;;;;;;2;234068664;234068664;-82
2022/02/23 16:36:29;;;;;;;;;1.00;1.00;;;;;;;;2;279080486;279080486;-82
2022/02/23 16:44:43;;;;;;;;;1.00;1.00;;;;;;;;2;231746521;231746521;-82
2022/02/23 16:53:41;;;;;;;;;2.00;2.00;;;;;;;;2;276578145;276578145;-82
2022/02/23 17:01:56;;;;;;;;;6.50;2.00;;;;;;;;2;234069986;234069986;-82
2022/02/23 17:10:22;;;;;;;;;0.50;0.50;;;;;;;;2;279080092;279080092;-83
2022/02/23 17:18:18;;;;;;;;;0.50;0.50;;;;;;;;2;234068346;234068346;-82
2022/02/23 17:27:18;;;;;;;;;1.00;1.00;;;;;;;;2;279080909;279080909;-82
2022/02/23 17:32:55;;;;;;;;;2.50;2.50;;;;;;;;2;231374788;231374788;-82
2022/02/23 17:41:15;;;;;;;;;1.50;1.50;;;;;;;;177076;27;259701681;-82
2022/02/23 17:50:15;;;;;;;;;2.50;2.50;;;;;;;;2;261074153;261074153;-82
2022/02/23 17:58:30;;;;;;;;;2.00;2.00;;;;;;;;2;261074613;261074613;-82
2022/02/23 18:07:30;;;;;;;;;2.50;2.50;;;;;;;;2;261075539;261075539;-82
2022/02/23 18:15:46;;;;;;;;;2.00;2.00;;;;;;;;2;261075234;261075234;-83
2022/02/23 18:24:46;;;;;;;;;21.00;0.50;;;;;;;;2;261078057;261078057;-82
2022/02/23 18:33:02;;;;;;;;;4.50;0.00;;;;;;;;2;261077537;261077537;-83
2022/02/23 18:42:05;;;;;;;;;4.00;4.00;;;;;;;;2;261074880;261074880;-82
2022/02/23 18:50:20;;;;;;;;;2.50;2.50;;;;;;;;2;261077095;261077095;-82
2022/02/23 18:59:21;;;;;;;;;2.00;2.00;;;;;;;;2;261075555;261075555;-82
2022/02/23 19:07:36;;;;;;;;;2.50;2.50;;;;;;;;2;261073459;261073459;-82
2022/02/23 19:16:36;;;;;;;;;1.50;1.50;;;;;;;;2;260174538;260174538;-82
2022/02/23 19:24:51;;;;;;;;;3.00;3.00;;;;;;;;2;261076587;261076587;-82
2022/02/23 19:33:49;;;;;;;;;5.00;5.00;;;;;;;;2;258418053;258418053;-82
2022/02/23 19:42:05;;;;;;;;;3.50;3.50;;;;;;;;2;261078104;261078104;-82
2022/02/23 19:51:06;;;;;;;;;6.00;6.00;;;;;;;;2;261077474;261077474;-82
2022/02/23 19:59:21;;;;;;;;;12.00;8.50;;;;;;;;2;261074305;261074305;-82
2022/02/23 20:08:20;;;;;;;;;13.50;13.50;;;;;;;;2;260135305;260135305;-82
2022/02/23 20:16:35;;;;;;;;;10.00;10.00;;;;;;;;2;258775280;258775280;-82
2022/02/23 20:25:34;;;;;;;;;10.00;7.00;;;;;;;;2;260869712;260869712;-82
2022/02/23 20:33:49;;;;;;;;;11.00;11.00;;;;;;;;2;260620708;260620708;-82
2022/02/23 20:42:49;;;;;;;;;13.50;12.00;;;;;;;;2;261074847;261074847;-82
2022/02/23 20:51:05;;;;;;;;;11.00;11.00;;;;;;;;2;261074691;261074691;-83
2022/02/23 20:58:35;;;;;;;;;17.00;5.50;;;;;;;;2;179085906;179085906;-82
2022/02/23 21:06:51;;;;;;;;;8.50;8.50;;;;;;;;2;261079105;261079105;-82
2022/02/23 21:15:51;;;;;;;;;3.00;3.00;;;;;;;;2;259836735;259836735;-82
2022/02/23 21:24:06;;;;;;;;;5.50;5.50;;;;;;;;2;261078077;261078077;-82
2022/02/23 21:33:05;;;;;;;;;9.50;9.50;;;;;;;;2;260011284;260011284;-82
2022/02/23 21:41:20;;;;;;;;;9.00;5.50;;;;;;;;2;259993382;259993382;-83
2022/02/23 21:50:07;;;;;;;;;3.00;3.00;;;;;;;;2;261077482;261077482;-82
2022/02/23 21:58:23;;;;;;;;;8.50;3.00;;;;;;;;2;261074419;261074419;-83
2022/02/23 22:07:23;;;;;;;;;6.00;6.00;;;;;;;;2;261076819;261076819;-82
2022/02/23 22:15:39;;;;;;;;;3.00;3.00;;;;;;;;2;261076422;261076422;-82
2022/02/23 22:24:39;;;;;;;;;7.00;7.00;;;;;;;;2;261078903;261078903;-82
2022/02/23 22:32:55;;;;;;;;;10.00;7.00;;;;;;;;2;261075128;261075128;-82
2022/02/23 22:41:55;;;;;;;;;14.00;6.00;;;;;;;;2;261080287;261080287;-83
2022/02/23 22:50:10;;;;;;;;;2.00;2.00;;;;;;;;2;261077729;261077729;-81
2022/02/23 22:59:11;;;;;;;;;8.00;8.00;;;;;;;;2;261075456;261075456;-81
2022/02/23 23:07:26;;;;;;;;;6.00;6.00;;;;;;;;2;261077020;261077020;-81
2022/02/23 23:19:46;;;;;;;;;3.50;3.50;;;;;;;;2;261075457;261075457;-81
2022/02/23 23:28:02;;;;;;;;;2.50;2.50;;;;;;;;2;261077398;261077398;-81
2022/02/23 23:37:02;;;;;;;;;4.50;4.50;;;;;;;;2;261075213;261075213;-82
2022/02/23 23:45:18;;;;;;;;;4.00;4.00;;;;;;;;2;261076233;261076233;-82
2022/02/23 23:54:22;;;;;;;;;4.00;4.00;;;;;;;;2;261076925;261076925;-82
